Time;durP1;ratioP1;P1;durP2;ratioP2;P2;SDS_P1;SDS_P2;PMS_P1;PMS_P2;Temp;Humidity;BMP_temperature;BMP_pressure;BME280_temperature;BME280_humidity;BME280_pressure;Samples;Min_cycle;Max_cycle;Signal;HPM_P1;HPM_P2
2021/07/20 00:02:31;;;;;;;12.40;7.18;;;;;;;21.78;91.44;98604.50;4858803;29;20432;-64
2021/07/20 00:04:56;;;;;;;12.15;7.35;;;;;;;21.77;90.69;98618.72;4858867;29;20056;-65
2021/07/20 00:07:22;;;;;;;19.17;7.57;;;;;;;21.77;89.57;98605.47;4858158;29;20045;-64
2021/07/20 00:09:48;;;;;;;13.75;6.88;;;;;;;21.75;88.37;98609.28;4835299;29;20417;-65
2021/07/20 00:12:14;;;;;;;12.13;7.45;;;;;;;21.73;87.08;98613.88;4859497;29;20058;-64
2021/07/20 00:14:40;;;;;;;13.55;7.13;;;;;;;21.70;87.76;98611.53;4858097;29;20048;-63
2021/07/20 00:17:06;;;;;;;10.90;6.65;;;;;;;21.69;86.81;98613.34;4858719;29;20118;-65
2021/07/20 00:19:31;;;;;;;10.82;6.50;;;;;;;21.67;86.12;98617.94;4858471;29;20037;-63
2021/07/20 00:21:57;;;;;;;12.43;6.65;;;;;;;21.66;85.94;98616.28;4857119;29;20045;-63
2021/07/20 00:24:23;;;;;;;15.18;7.60;;;;;;;21.64;85.99;98617.41;4857484;29;20046;-63
2021/07/20 00:26:48;;;;;;;12.73;7.05;;;;;;;21.60;85.77;98610.75;4858348;29;20065;-64
2021/07/20 00:29:14;;;;;;;12.40;6.97;;;;;;;21.56;85.72;98608.38;4854885;29;20516;-64
2021/07/20 00:31:40;;;;;;;11.70;7.25;;;;;;;21.51;85.95;98601.91;4857375;29;20141;-65
2021/07/20 00:34:06;;;;;;;17.13;6.85;;;;;;;21.45;85.94;98605.97;4854614;29;20042;-64
2021/07/20 00:39:21;;;;;;;;;;;;;;;21.34;86.52;98611.47;5123253;23;20089;-62
2021/07/20 00:41:48;;;;;;;12.40;6.85;;;;;;;21.29;86.84;98616.34;4827059;29;20423;-63
2021/07/20 00:44:14;;;;;;;16.80;7.50;;;;;;;21.25;87.51;98606.22;4823562;29;20047;-64
2021/07/20 00:46:40;;;;;;;14.93;7.28;;;;;;;21.26;88.21;98613.97;4819331;29;20072;-64
2021/07/20 00:49:06;;;;;;;11.07;6.80;;;;;;;21.23;88.71;98611.66;4834773;29;20050;-62
2021/07/20 00:51:32;;;;;;;11.38;7.47;;;;;;;21.22;89.12;98606.50;4814773;29;20138;-62
2021/07/20 00:53:58;;;;;;;13.65;7.80;;;;;;;21.20;90.43;98608.47;4834947;29;20598;-63
2021/07/20 00:56:26;;;;;;;13.25;7.35;;;;;;;21.22;90.13;98603.84;4832977;29;20073;-64
2021/07/20 00:58:51;;;;;;;12.73;7.05;;;;;;;21.19;90.28;98599.69;4839360;29;20498;-64
2021/07/20 01:01:18;;;;;;;13.60;7.07;;;;;;;21.16;90.59;98601.78;4822679;29;20551;-64
2021/07/20 01:03:49;;;;;;;10.40;6.40;;;;;;;21.12;91.06;98609.97;4807435;29;20144;-63
2021/07/20 01:06:23;;;;;;;10.63;7.28;;;;;;;21.08;91.13;98608.63;4809117;29;20046;-64
2021/07/20 01:08:51;;;;;;;12.63;7.22;;;;;;;21.05;91.67;98608.88;4838208;29;20046;-62
2021/07/20 01:11:21;;;;;;;13.23;6.88;;;;;;;21.02;91.69;98608.34;4830357;29;20045;-64
2021/07/20 01:13:48;;;;;;;10.80;7.35;;;;;;;21.02;92.32;98608.34;4830840;29;20054;-63
2021/07/20 01:16:15;;;;;;;15.15;8.10;;;;;;;21.00;92.85;98610.28;4828451;29;20137;-63
2021/07/20 01:18:41;;;;;;;18.83;7.47;;;;;;;20.96;92.91;98612.41;4833025;29;20429;-63
2021/07/20 01:21:10;;;;;;;15.10;7.43;;;;;;;20.93;93.23;98607.44;4834462;29;20042;-63
2021/07/20 01:23:42;;;;;;;7.97;6.63;;;;;;;20.90;93.38;98605.06;4820007;29;20045;-63
2021/07/20 01:26:08;;;;;;;11.70;7.60;;;;;;;20.87;93.78;98600.06;4831578;29;20141;-63
2021/07/20 01:28:37;;;;;;;9.87;7.00;;;;;;;20.84;94.31;98595.06;4812783;29;20114;-65
2021/07/20 01:31:10;;;;;;;10.57;7.15;;;;;;;20.82;94.43;98591.75;4834856;29;20307;-64
2021/07/20 01:33:38;;;;;;;16.05;7.18;;;;;;;20.81;94.98;98595.34;4823653;29;20455;-64
2021/07/20 01:36:06;;;;;;;12.55;7.32;;;;;;;20.80;95.11;98595.50;4822966;29;20062;-65
2021/07/20 01:38:34;;;;;;;11.13;6.90;;;;;;;20.78;95.25;98600.91;4803501;29;20062;-64
2021/07/20 01:41:07;;;;;;;10.07;6.68;;;;;;;20.77;95.53;98601.06;4822802;29;20073;-63
2021/07/20 01:43:34;;;;;;;13.88;8.23;;;;;;;20.71;95.79;98608.59;4806903;29;20053;-63
2021/07/20 01:46:02;;;;;;;17.40;7.78;;;;;;;20.73;96.01;98614.53;4799756;29;20038;-64
2021/07/20 01:48:45;;;;;;;14.05;7.97;;;;;;;20.73;96.01;98617.19;5183122;24;20025;31
2021/07/20 01:51:14;;;;;;;13.60;7.07;;;;;;;20.71;96.23;98615.69;4815460;29;20521;-64
2021/07/20 01:53:43;;;;;;;13.35;7.93;;;;;;;20.68;96.31;98619.41;4824496;29;20078;-64
2021/07/20 01:56:10;;;;;;;13.55;7.97;;;;;;;20.70;96.66;98616.66;4824445;29;20154;-62
2021/07/20 01:58:44;;;;;;;12.07;7.53;;;;;;;20.71;96.52;98619.16;4822731;29;20101;-64
2021/07/20 02:01:39;;;;;;;18.48;8.07;;;;;;;20.73;94.67;98620.81;4819354;29;20586;-64
2021/07/20 02:09:55;;;;;;;11.68;7.32;;;;;;;20.84;92.75;98615.34;4826864;29;20042;-63
2021/07/20 02:12:32;;;;;;;13.30;7.57;;;;;;;20.85;92.08;98609.09;4818594;29;20075;-64
2021/07/20 02:15:37;;;;;;;13.55;7.10;;;;;;;20.88;90.26;98608.81;4809441;29;20510;-63
2021/07/20 02:18:25;;;;;;;15.90;8.30;;;;;;;20.88;89.37;98617.59;4800669;29;20138;-64
2021/07/20 02:20:52;;;;;;;14.43;7.45;;;;;;;20.91;89.18;98614.66;4806894;29;20042;-63
2021/07/20 02:23:33;;;;;;;14.95;8.05;;;;;;;20.95;89.05;98617.81;4818285;29;20069;-65
2021/07/20 02:25:59;;;;;;;11.65;7.15;;;;;;;20.98;88.70;98607.81;4841967;29;20491;-65
2021/07/20 02:31:18;;;;;;;13.88;7.30;;;;;;;21.03;86.57;98610.88;4836883;29;20061;-63
2021/07/20 02:33:46;;;;;;;15.60;8.05;;;;;;;21.04;86.44;98620.44;4837478;29;20050;-63
2021/07/20 02:36:12;;;;;;;12.43;6.60;;;;;;;21.13;86.83;98629.31;4824969;29;20410;-62
2021/07/20 02:38:40;;;;;;;15.18;7.05;;;;;;;21.14;86.23;98625.75;4840118;29;20493;-67
2021/07/20 02:41:12;;;;;;;14.60;7.68;;;;;;;21.17;85.90;98619.31;4830650;29;20050;-64
2021/07/20 02:43:43;;;;;;;10.52;6.85;;;;;;;21.21;85.50;98620.69;4822550;29;20034;-63
2021/07/20 02:46:11;;;;;;;11.13;7.28;;;;;;;21.19;84.09;98620.84;4839339;29;20105;-63
2021/07/20 02:48:41;;;;;;;11.80;6.90;;;;;;;21.22;84.33;98614.41;4825584;29;20054;-65
2021/07/20 02:51:10;;;;;;;13.00;7.07;;;;;;;21.24;84.11;98623.88;4828815;29;20057;-63
2021/07/20 02:53:42;;;;;;;15.88;7.18;;;;;;;21.30;83.75;98622.47;4830940;29;20138;-63
2021/07/20 02:56:12;;;;;;;9.88;7.10;;;;;;;21.31;83.63;98614.38;4827377;29;20046;-64
2021/07/20 02:58:44;;;;;;;12.45;7.70;;;;;;;21.32;83.67;98621.34;4822096;29;20046;-63
2021/07/20 03:01:16;;;;;;;10.57;7.40;;;;;;;21.36;83.32;98625.34;4812756;29;20561;-61
2021/07/20 03:03:42;;;;;;;11.38;7.25;;;;;;;21.38;82.84;98623.41;4832502;29;20050;-63
2021/07/20 03:06:12;;;;;;;14.32;6.97;;;;;;;21.39;82.60;98622.44;4825435;29;20057;-67
2021/07/20 03:08:38;;;;;;;14.77;7.43;;;;;;;21.40;82.53;98623.25;4823556;29;20503;-63
2021/07/20 03:11:36;;;;;;;12.88;7.90;;;;;;;21.39;82.21;98632.16;4838346;29;20058;-63
2021/07/20 03:14:06;;;;;;;15.40;7.10;;;;;;;21.39;81.81;98626.88;4837778;29;20042;-64
2021/07/20 03:16:34;;;;;;;10.88;7.03;;;;;;;21.40;81.82;98629.38;4822001;29;20061;-64
2021/07/20 03:19:01;;;;;;;17.20;7.15;;;;;;;21.39;81.41;98627.72;4823535;29;20170;-66
2021/07/20 03:21:30;;;;;;;14.60;7.40;;;;;;;21.39;81.35;98629.53;4819998;29;20054;-62
2021/07/20 03:23:59;;;;;;;11.23;7.00;;;;;;;21.38;81.16;98628.69;4837508;29;20050;-64
2021/07/20 03:26:24;;;;;;;13.60;7.97;;;;;;;21.38;81.14;98630.50;4840388;29;20050;-66
2021/07/20 03:28:52;;;;;;;14.20;6.68;;;;;;;21.37;80.94;98634.94;4824127;29;20077;-64
2021/07/20 03:31:19;;;;;;;14.55;6.72;;;;;;;21.41;81.01;98640.78;4832944;29;20198;-63
2021/07/20 03:33:49;;;;;;;11.35;7.00;;;;;;;21.42;80.45;98645.91;4841924;29;20052;-65
2021/07/20 03:36:29;;;;;;;12.93;7.15;;;;;;;21.41;79.96;98633.66;4826376;29;20054;-64
2021/07/20 03:38:55;;;;;;;11.63;6.88;;;;;;;21.41;79.91;98636.31;4835330;29;20046;-64
2021/07/20 03:41:25;;;;;;;11.77;7.28;;;;;;;21.43;80.09;98644.09;4831053;29;20058;-64
2021/07/20 03:43:54;;;;;;;18.23;7.53;;;;;;;21.44;80.31;98643.13;4824871;29;20041;-64
2021/07/20 03:46:19;;;;;;;12.52;7.05;;;;;;;21.42;79.64;98640.63;4824675;29;20050;-65
2021/07/20 03:48:45;;;;;;;12.25;7.03;;;;;;;21.44;80.08;98643.97;4811837;29;20049;-64
2021/07/20 03:51:31;;;;;;;12.38;6.97;;;;;;;21.45;79.56;98636.88;5151009;23;20485;-62
2021/07/20 03:54:00;;;;;;;10.13;6.50;;;;;;;21.50;79.13;98634.63;4836182;29;20042;-64
2021/07/20 03:56:27;;;;;;;11.50;6.60;;;;;;;21.55;79.39;98649.06;4834905;29;20053;-64
2021/07/20 03:58:57;;;;;;;11.80;6.80;;;;;;;21.59;79.48;98646.13;4835792;29;20602;-63
2021/07/20 04:01:28;;;;;;;;;;;;;;;21.61;79.31;98639.72;4821509;29;20471;-65
2021/07/20 04:03:56;;;;;;;11.02;6.35;;;;;;;21.60;79.12;98627.47;4806904;29;19924;-63
2021/07/20 04:06:54;;;;;;;12.20;7.53;;;;;;;21.60;78.44;98632.75;4821839;29;20062;-64
2021/07/20 04:09:32;;;;;;;22.00;7.05;;;;;;;21.59;78.09;98652.25;4822556;29;20141;-65
2021/07/20 04:12:15;;;;;;;12.82;5.97;;;;;;;21.53;77.97;98647.53;5285684;24;20062;-65
2021/07/20 04:15:01;;;;;;;12.82;7.47;;;;;;;21.56;78.48;98644.63;4812050;29;20050;-65
2021/07/20 04:17:33;;;;;;;13.25;7.05;;;;;;;21.62;77.75;98643.16;4811897;29;20050;-64
2021/07/20 04:19:59;;;;;;;12.25;6.63;;;;;;;21.65;77.59;98651.66;4824713;29;20062;-62
2021/07/20 04:22:29;;;;;;;13.88;7.57;;;;;;;21.70;77.23;98654.69;4827056;29;20053;-63
2021/07/20 04:24:55;;;;;;;13.75;6.43;;;;;;;21.70;76.64;98654.69;4798450;29;20046;-67
2021/07/20 04:27:29;;;;;;;8.23;5.93;;;;;;;21.72;76.53;98658.00;4816591;29;20050;-64
2021/07/20 04:29:55;;;;;;;9.70;7.10;;;;;;;21.78;77.03;98651.28;4800205;29;20087;-64
2021/07/20 04:32:21;;;;;;;10.80;6.13;;;;;;;21.84;76.67;98648.06;4830142;29;20038;-64
2021/07/20 04:34:49;;;;;;;11.00;6.22;;;;;;;21.89;76.67;98656.38;4822182;29;20109;-65
2021/07/20 04:37:22;;;;;;;16.13;7.50;;;;;;;21.95;76.71;98651.38;4818078;29;20050;-63
2021/07/20 04:39:53;;;;;;;14.15;7.07;;;;;;;22.01;76.71;98642.00;4805695;29;20537;-64
2021/07/20 04:42:20;;;;;;;10.35;5.82;;;;;;;22.01;75.48;98652.59;4821701;29;20399;-64
2021/07/20 04:44:46;;;;;;;12.02;6.53;;;;;;;22.04;75.01;98659.38;4800671;29;20195;-65
2021/07/20 04:47:32;;;;;;;11.30;6.38;;;;;;;22.08;74.65;98664.25;4829892;29;20057;-63
2021/07/20 04:50:05;;;;;;;11.07;6.07;;;;;;;22.09;74.00;98667.69;4816154;29;20053;-65
2021/07/20 04:52:32;;;;;;;10.18;6.13;;;;;;;22.13;74.20;98661.97;5280218;24;20063;-65
2021/07/20 04:54:58;;;;;;;11.63;6.32;;;;;;;22.19;73.23;98668.50;4819963;29;20053;-66
2021/07/20 04:57:24;;;;;;;12.10;5.78;;;;;;;22.23;72.68;98668.03;4832735;29;20050;-65
2021/07/20 04:59:51;;;;;;;11.00;6.03;;;;;;;22.26;72.17;98680.13;4815718;29;20057;-65
2021/07/20 05:02:18;;;;;;;9.40;5.65;;;;;;;22.29;72.50;98666.59;4831871;29;20054;-64
2021/07/20 05:04:48;;;;;;;9.70;5.97;;;;;;;22.33;72.55;98671.44;4818149;29;20042;-64
2021/07/20 05:07:17;;;;;;;9.70;5.63;;;;;;;22.38;72.03;98669.16;4817823;29;20098;-64
2021/07/20 05:09:51;;;;;;;13.30;5.82;;;;;;;22.46;72.00;98668.41;4831094;29;20080;-64
2021/07/20 05:12:19;;;;;;;10.17;6.53;;;;;;;22.50;71.73;98668.94;4838642;29;20065;-63
2021/07/20 05:14:53;;;;;;;9.82;5.57;;;;;;;22.58;71.59;98674.28;4811285;29;20107;-64
2021/07/20 05:17:21;;;;;;;10.32;5.90;;;;;;;22.66;71.22;98680.47;4826864;29;20095;-64
2021/07/20 05:19:47;;;;;;;10.23;6.20;;;;;;;22.68;71.21;98680.34;4826044;29;20053;-63
2021/07/20 05:22:20;;;;;;;15.85;8.65;;;;;;;22.76;71.41;98683.94;4827186;29;20038;-65
2021/07/20 05:24:53;;;;;;;11.20;6.72;;;;;;;22.85;71.51;98673.38;4826811;29;20050;-66
2021/07/20 05:27:22;;;;;;;13.15;6.13;;;;;;;23.04;71.39;98681.97;4826826;29;20052;-64
2021/07/20 05:29:48;;;;;;;11.75;6.65;;;;;;;23.15;70.74;98691.47;4825865;29;20099;-64
2021/07/20 05:32:22;;;;;;;10.65;6.57;;;;;;;23.24;69.89;98694.00;4825037;29;20053;-65
2021/07/20 05:34:51;;;;;;;11.95;6.38;;;;;;;23.25;68.99;98697.50;4783699;29;20519;-65
2021/07/20 05:37:21;;;;;;;10.07;5.90;;;;;;;23.22;68.93;98706.63;4825794;29;20049;-63
2021/07/20 05:39:51;;;;;;;10.15;5.70;;;;;;;23.20;68.02;98699.78;4825597;29;20510;-65
2021/07/20 05:42:22;;;;;;;10.75;6.07;;;;;;;23.20;68.07;98697.97;4815112;29;20046;-64
2021/07/20 05:44:50;;;;;;;12.65;5.97;;;;;;;23.33;68.54;98704.69;4819587;29;20130;-64
2021/07/20 05:47:17;;;;;;;10.68;6.13;;;;;;;23.53;68.79;98708.81;4831326;29;20537;-65
2021/07/20 05:49:43;;;;;;;10.43;5.90;;;;;;;23.53;66.32;98700.84;4838649;29;20529;-60
2021/07/20 05:52:14;;;;;;;8.63;5.82;;;;;;;23.59;66.05;98711.66;4827850;29;20050;-64
2021/07/20 05:54:45;;;;;;;11.18;6.57;;;;;;;23.66;66.24;98711.84;4829512;29;20076;-65
2021/07/20 05:57:14;;;;;;;11.10;6.15;;;;;;;23.79;65.62;98714.06;4810537;29;20046;-64
2021/07/20 05:59:48;;;;;;;13.02;7.20;;;;;;;23.94;65.72;98715.13;4843815;29;20062;-63
2021/07/20 06:02:20;;;;;;;11.65;6.82;;;;;;;24.06;64.84;98717.31;4830710;29;20495;-66
2021/07/20 06:04:52;;;;;;;15.05;6.75;;;;;;;24.21;63.64;98717.56;4835436;29;20057;-63
2021/07/20 06:07:17;;;;;;;10.85;6.18;;;;;;;24.38;63.64;98707.78;4825802;29;20086;-65
2021/07/20 06:09:46;;;;;;;13.63;7.50;;;;;;;24.53;63.24;98705.31;4814957;29;20215;-66
2021/07/20 06:15:07;;;;;;;9.82;6.20;;;;;;;24.84;60.26;98698.34;5010842;23;20440;-64
2021/07/20 06:17:33;;;;;;;10.35;6.75;;;;;;;25.00;59.13;98703.69;4861248;29;20048;-64
2021/07/20 06:20:00;;;;;;;9.73;6.95;;;;;;;25.11;57.75;98702.50;4846948;29;20060;-62
2021/07/20 06:22:32;;;;;;;13.90;6.13;;;;;;;25.31;57.26;98711.78;4844984;29;20177;-63
2021/07/20 06:25:03;;;;;;;16.58;8.07;;;;;;;25.57;57.30;98703.59;4831274;29;20122;-64
2021/07/20 06:27:30;;;;;;;11.27;7.50;;;;;;;25.71;55.20;98714.34;4848066;29;20041;-65
2021/07/20 06:29:57;;;;;;;18.73;11.15;;;;;;;25.82;54.18;98712.31;4826709;29;20042;-62
2021/07/20 06:32:23;;;;;;;10.50;6.60;;;;;;;25.88;53.60;98724.94;4824463;29;20049;-66
2021/07/20 06:34:49;;;;;;;9.80;5.10;;;;;;;26.02;50.36;98713.53;4838164;29;20045;-62
2021/07/20 06:37:17;;;;;;;25.63;6.70;;;;;;;26.26;50.08;98720.63;4819663;29;20061;-64
2021/07/20 06:39:42;;;;;;;20.45;11.88;;;;;;;26.63;50.61;98719.88;4841544;29;20045;-65
2021/07/20 06:42:08;;;;;;;21.73;8.20;;;;;;;27.15;49.14;98718.13;4824638;29;20050;-64
2021/07/20 06:44:35;;;;;;;18.90;8.73;;;;;;;27.70;47.36;98724.91;4839389;29;20517;-65
2021/07/20 06:47:02;;;;;;;14.25;5.88;;;;;;;28.37;43.79;98722.06;4841016;29;20050;-66
2021/07/20 06:49:28;;;;;;;7.57;4.90;;;;;;;28.84;40.96;98725.00;4826465;29;20052;-64
2021/07/20 06:51:54;;;;;;;7.70;5.13;;;;;;;28.64;41.00;98729.31;4837172;29;20478;-67
2021/07/20 06:54:20;;;;;;;7.40;5.15;;;;;;;29.27;39.58;98731.13;4839746;29;20510;-65
2021/07/20 06:56:53;;;;;;;9.43;5.70;;;;;;;30.46;37.83;98726.41;4836658;29;20050;-65
2021/07/20 06:59:20;;;;;;;7.47;4.68;;;;;;;31.13;36.41;98720.97;4821122;29;20046;-68
2021/07/20 07:01:46;;;;;;;11.38;5.25;;;;;;;31.02;37.40;98725.09;4819563;29;20122;-64
2021/07/20 07:04:22;;;;;;;11.18;7.25;;;;;;;31.42;36.50;98725.88;4825503;29;20046;-64
2021/07/20 07:06:50;;;;;;;16.75;7.03;;;;;;;32.57;34.80;98733.13;4841374;29;20061;-65
2021/07/20 07:09:16;;;;;;;10.25;6.78;;;;;;;33.21;33.94;98732.09;4825305;29;20463;-64
2021/07/20 07:11:43;;;;;;;8.93;7.57;;;;;;;33.96;32.63;98730.91;4823904;29;20091;-68
2021/07/20 07:14:12;;;;;;;10.80;7.82;;;;;;;34.83;30.85;98718.75;4837903;29;20060;-63
2021/07/20 07:16:39;;;;;;;9.05;5.40;;;;;;;35.71;29.39;98725.16;4819883;29;20058;-62
2021/07/20 07:19:07;;;;;;;;;;;;;;;36.58;28.58;98729.38;4823291;29;20041;-64
2021/07/20 07:21:33;;;;;;;6.93;5.43;;;;;;;37.14;27.33;98722.22;4821540;29;19931;-65
2021/07/20 07:23:59;;;;;;;15.90;6.63;;;;;;;37.19;27.06;98727.72;4824241;29;20042;-64
2021/07/20 07:26:25;;;;;;;10.90;5.72;;;;;;;37.55;26.86;98737.25;4824074;29;20068;-66
2021/07/20 07:28:52;;;;;;;10.13;7.05;;;;;;;38.42;25.72;98724.50;4841002;29;20509;-66
2021/07/20 07:31:19;;;;;;;9.82;6.53;;;;;;;39.33;24.86;98728.09;4825033;29;20054;-63
2021/07/20 07:33:46;;;;;;;8.15;6.38;;;;;;;39.47;24.70;98722.16;4839587;29;20505;-66
2021/07/20 07:36:12;;;;;;;9.27;6.13;;;;;;;38.77;24.92;98718.63;4835961;29;20464;-59
2021/07/20 07:38:39;;;;;;;8.68;6.18;;;;;;;38.95;24.99;98718.25;4840058;29;20052;-66
2021/07/20 07:41:05;;;;;;;8.45;6.50;;;;;;;39.27;23.69;98718.22;4823940;29;20390;-64
2021/07/20 07:43:31;;;;;;;7.82;5.45;;;;;;;39.79;23.20;98712.84;4823534;29;20042;-57
2021/07/20 07:45:58;;;;;;;17.98;6.85;;;;;;;39.93;23.53;98723.28;4829906;29;20110;-60
2021/07/20 07:48:25;;;;;;;6.95;5.47;;;;;;;40.14;23.06;98727.72;4835360;29;20049;-59
2021/07/20 07:50:54;;;;;;;8.77;6.28;;;;;;;40.26;22.34;98725.56;4834002;29;20046;-59
2021/07/20 07:53:20;;;;;;;7.85;5.47;;;;;;;40.02;22.17;98721.66;4836100;29;20041;-59
2021/07/20 07:55:47;;;;;;;12.07;6.38;;;;;;;39.41;23.15;98725.97;4807112;29;20046;-59
2021/07/20 07:58:15;;;;;;;12.13;9.37;;;;;;;38.90;24.18;98715.50;4833512;29;20076;-56
2021/07/20 08:00:42;;;;;;;22.05;8.43;;;;;;;39.25;23.85;98714.13;4818023;29;20117;-58
2021/07/20 08:03:08;;;;;;;8.55;5.43;;;;;;;39.67;22.88;98717.69;4820736;29;20137;-59
2021/07/20 08:05:34;;;;;;;16.88;9.13;;;;;;;39.67;23.01;98719.59;4820371;29;20046;-60
2021/07/20 08:08:00;;;;;;;7.28;5.68;;;;;;;39.73;23.07;98721.22;4821912;29;20042;-61
2021/07/20 08:10:27;;;;;;;23.33;15.82;;;;;;;40.06;23.19;98717.31;4834050;29;20085;-62
2021/07/20 08:12:57;;;;;;;8.35;5.72;;;;;;;40.51;21.97;98722.13;4809018;29;20053;-59
2021/07/20 08:15:22;;;;;;;10.75;7.85;;;;;;;41.05;21.43;98727.91;4834190;29;20065;-59
2021/07/20 08:17:49;;;;;;;15.55;11.40;;;;;;;41.27;21.46;98736.63;4839187;29;20093;-58
2021/07/20 08:20:17;;;;;;;19.25;12.10;;;;;;;41.42;21.56;98735.78;4827483;29;20510;-59
2021/07/20 08:22:42;;;;;;;10.40;6.22;;;;;;;41.84;20.66;98730.78;4823229;29;20106;-59
2021/07/20 08:25:39;;;;;;;21.95;19.58;;;;;;;42.55;20.05;98724.19;4840277;29;20513;-58
2021/07/20 08:28:07;;;;;;;;;;;;;;;43.10;18.89;98733.91;4832715;29;20761;-59
2021/07/20 08:30:37;;;;;;;8.35;5.95;;;;;;;43.51;18.36;98723.38;4838804;29;20452;-56
2021/07/20 08:33:04;;;;;;;10.73;7.20;;;;;;;43.59;18.26;98724.69;4839715;29;20053;-58
2021/07/20 08:35:32;;;;;;;13.57;6.07;;;;;;;43.70;17.97;98729.75;4819969;29;20076;-58
2021/07/20 08:38:01;;;;;;;7.38;5.15;;;;;;;43.30;17.43;98732.88;4833939;29;20343;-56
2021/07/20 08:40:42;;;;;;;18.52;9.48;;;;;;;43.05;18.52;98725.72;4838901;29;20537;-58
2021/07/20 08:43:10;;;;;;;120.80;11.65;;;;;;;43.10;17.15;98725.69;4837768;29;20045;-58
2021/07/20 08:46:05;;;;;;;21.27;5.80;;;;;;;43.14;16.96;98734.97;4837610;29;20053;-59
2021/07/20 08:49:08;;;;;;;11.40;5.75;;;;;;;43.66;16.84;98723.22;4815841;29;20099;-56
2021/07/20 08:52:04;;;;;;;7.35;6.00;;;;;;;43.86;16.56;98728.44;4839367;29;20048;-57
2021/07/20 08:54:38;;;;;;;7.68;5.47;;;;;;;44.08;16.15;98722.44;5324126;23;20051;-57
2021/07/20 08:57:06;;;;;;;6.80;4.45;;;;;;;44.07;15.88;98712.63;4838761;29;20065;-58
2021/07/20 08:59:38;;;;;;;9.80;8.18;;;;;;;43.89;16.26;98725.16;4816103;29;20128;-61
2021/07/20 09:02:13;;;;;;;9.13;5.72;;;;;;;44.29;15.85;98723.00;4823648;29;20061;-60
2021/07/20 09:05:09;;;;;;;7.95;5.55;;;;;;;44.26;15.68;98723.59;4835284;29;20046;-59
2021/07/20 09:08:01;;;;;;;9.27;4.90;;;;;;;44.78;14.87;98733.56;4812460;29;20062;-59
2021/07/20 09:10:38;;;;;;;7.65;5.47;;;;;;;45.38;14.52;98728.16;4809694;29;20050;-61
2021/07/20 09:13:11;;;;;;;11.48;6.70;;;;;;;45.82;14.21;98727.59;4802374;29;20042;-60
2021/07/20 09:15:40;;;;;;;5.43;4.85;;;;;;;45.75;13.96;98725.22;4820861;29;20042;-60
2021/07/20 09:18:18;;;;;;;7.63;5.25;;;;;;;46.05;14.00;98726.56;4804125;29;20514;-59
2021/07/20 09:20:45;;;;;;;5.93;5.20;;;;;;;45.88;13.60;98720.88;4790660;29;20108;-59
2021/07/20 09:23:16;;;;;;;12.38;6.57;;;;;;;44.89;13.82;98715.00;4786392;29;20051;-58
2021/07/20 09:26:09;;;;;;;6.78;4.80;;;;;;;44.38;15.04;98726.75;4816241;29;20046;-61
2021/07/20 10:52:51;;;;;;;4.90;4.47;;;;;;;44.92;13.59;98690.50;5559965;23;20115;-60
2021/07/20 10:55:24;;;;;;;8.70;7.90;;;;;;;45.04;13.52;98677.16;4836101;29;20046;-60
2021/07/20 10:57:57;;;;;;;6.63;4.03;;;;;;;44.85;12.56;98692.03;4817502;29;20077;-59
2021/07/20 11:00:23;;;;;;;4.65;4.15;;;;;;;44.62;12.89;98685.50;4821434;29;20050;-59
2021/07/20 11:03:21;;;;;;;4.93;4.23;;;;;;;45.20;13.24;98694.16;4823774;29;20109;-61
2021/07/20 11:05:49;;;;;;;5.93;3.70;;;;;;;45.43;12.27;98684.16;4826176;29;20706;-59
2021/07/20 11:08:15;;;;;;;4.15;3.75;;;;;;;45.20;12.36;98674.13;4841753;29;20408;-63
2021/07/20 11:10:46;;;;;;;10.35;4.50;;;;;;;44.16;12.97;98674.41;4841703;29;20830;-62
2021/07/20 11:13:35;;;;;;;8.68;6.22;;;;;;;44.64;13.69;98683.28;4825004;29;20042;-61
2021/07/20 11:16:20;;;;;;;4.53;4.22;;;;;;;45.70;13.05;98686.06;4839245;29;20102;-58
2021/07/20 11:18:50;;;;;;;4.85;4.05;;;;;;;45.08;12.61;98674.59;4826279;29;20504;-60
2021/07/20 11:21:21;;;;;;;4.15;3.80;;;;;;;44.79;12.26;98679.50;4840158;29;20052;-62
2021/07/20 11:23:48;;;;;;;3.97;3.67;;;;;;;44.55;12.54;98679.56;4840490;29;20052;-66
2021/07/20 11:26:17;;;;;;;3.90;3.60;;;;;;;43.84;13.01;98670.41;4838987;29;20053;-65
2021/07/20 11:28:44;;;;;;;136.68;14.32;;;;;;;44.33;13.66;98678.25;4838097;29;20137;-62
2021/07/20 11:31:13;;;;;;;4.20;3.90;;;;;;;45.06;13.02;98679.59;4802576;29;20048;-64
2021/07/20 11:33:43;;;;;;;4.13;3.72;;;;;;;45.38;12.42;98671.28;4824049;29;20049;-62
2021/07/20 11:36:13;;;;;;;7.68;5.15;;;;;;;45.64;12.40;98674.38;4840887;29;20062;-63
2021/07/20 11:38:39;;;;;;;18.02;7.05;;;;;;;45.42;12.23;98669.59;4841921;29;20049;-65
2021/07/20 11:41:12;;;;;;;14.73;6.23;;;;;;;45.38;12.21;98671.28;4823167;29;20049;-67
2021/07/20 11:44:07;;;;;;;8.60;6.80;;;;;;;45.11;12.76;98668.53;4827238;29;20035;-66
2021/07/20 11:47:06;;;;;;;8.82;7.13;;;;;;;44.94;12.73;98669.06;4823249;29;20050;-65
2021/07/20 11:49:48;;;;;;;11.35;5.90;;;;;;;44.81;12.74;98678.06;4774145;29;20073;-67
2021/07/20 11:52:18;;;;;;;7.07;3.50;;;;;;;44.47;12.50;98667.38;4820115;29;20365;-63
2021/07/20 11:55:00;;;;;;;3.80;3.13;;;;;;;44.71;12.79;98664.53;4824846;29;20058;-65
2021/07/20 11:57:45;;;;;;;17.38;12.93;;;;;;;43.76;13.51;98668.31;4841711;29;20049;-63
2021/07/20 12:00:32;;;;;;;11.02;5.65;;;;;;;43.37;13.93;98667.69;4837121;29;20429;-64
2021/07/20 12:03:24;;;;;;;7.82;3.50;;;;;;;43.36;13.80;98671.50;4834919;29;20073;-67
2021/07/20 12:05:59;;;;;;;5.72;4.65;;;;;;;44.36;13.34;98673.31;4818845;29;20050;-66
2021/07/20 12:09:02;;;;;;;8.63;3.80;;;;;;;42.97;13.92;98671.63;4815639;29;20062;-65
2021/07/20 12:11:30;;;;;;;3.00;2.17;;;;;;;40.57;15.79;98671.94;4838538;29;20106;-68
2021/07/20 12:14:05;;;;;;;2.90;2.38;;;;;;;39.25;16.67;98665.19;4838591;29;20057;-65
2021/07/20 12:16:31;;;;;;;5.80;2.47;;;;;;;37.75;17.72;98647.97;4837002;29;20039;-65
2021/07/20 12:18:59;;;;;;;5.93;2.40;;;;;;;36.49;18.56;98663.94;4836053;29;20050;-64
2021/07/20 12:21:26;;;;;;;9.40;3.35;;;;;;;36.48;19.01;98665.00;4840396;29;20489;-65
2021/07/20 12:23:57;;;;;;;11.52;3.42;;;;;;;38.45;18.27;98677.03;4845402;29;20072;-65
2021/07/20 12:26:25;;;;;;;6.32;2.53;;;;;;;38.96;17.60;98675.59;4840045;29;20585;-63
2021/07/20 12:28:50;;;;;;;5.63;3.45;;;;;;;38.74;18.18;98664.78;4823745;29;20058;-63
2021/07/20 12:31:17;;;;;;;4.20;3.20;;;;;;;39.86;17.26;98669.06;4822138;29;20053;-64
2021/07/20 12:33:52;;;;;;;6.22;2.80;;;;;;;40.72;16.62;98668.47;4822806;29;20064;-64
2021/07/20 12:36:17;;;;;;;9.52;5.00;;;;;;;41.11;16.49;98671.44;4837733;29;20425;-65
2021/07/20 12:38:43;;;;;;;10.07;5.07;;;;;;;41.40;16.38;98677.94;4807851;29;20042;-65
2021/07/20 12:41:11;;;;;;;5.47;2.83;;;;;;;40.77;16.30;98669.28;4826175;29;20046;-64
2021/07/20 12:43:40;;;;;;;;;;;;;;;40.45;16.79;98664.06;4839067;29;20046;-63
2021/07/20 12:46:10;;;;;;;4.78;2.60;;;;;;;40.05;17.12;98653.03;4840024;29;19931;-66
2021/07/20 12:48:47;;;;;;;8.00;2.30;;;;;;;39.49;17.94;98660.16;4839906;29;20053;-67
2021/07/20 12:51:14;;;;;;;6.35;2.30;;;;;;;38.48;18.40;98650.16;4839784;29;20058;-65
2021/07/20 12:53:41;;;;;;;9.45;2.25;;;;;;;37.79;19.05;98648.31;4836088;29;20061;-64
2021/07/20 12:56:11;;;;;;;6.07;2.07;;;;;;;37.29;19.40;98647.34;4817569;29;20129;-64
2021/07/20 12:58:36;;;;;;;12.18;4.40;;;;;;;37.12;19.75;98643.03;4833759;29;20558;-64
2021/07/20 13:01:02;;;;;;;8.63;3.30;;;;;;;36.86;19.93;98649.94;4836053;29;20122;-65
2021/07/20 13:03:31;;;;;;;5.20;2.83;;;;;;;36.25;20.50;98648.06;4836641;29;20049;-63
2021/07/20 13:05:57;;;;;;;6.00;2.92;;;;;;;35.74;21.16;98654.34;4831924;29;20539;-64
2021/07/20 13:08:23;;;;;;;4.13;2.50;;;;;;;35.13;21.98;98659.19;4835142;29;20034;-62
2021/07/20 13:10:50;;;;;;;4.97;1.80;;;;;;;34.15;22.36;98649.94;4820209;29;20462;-63
2021/07/20 13:13:16;;;;;;;3.83;1.90;;;;;;;33.61;22.82;98649.75;4835834;29;20408;-63
2021/07/20 13:15:47;;;;;;;4.57;2.20;;;;;;;33.25;23.27;98643.53;4818071;29;20053;-63
2021/07/20 13:18:13;;;;;;;3.75;2.35;;;;;;;33.20;23.20;98641.53;4835088;29;20050;-59
2021/07/20 13:20:38;;;;;;;2.72;2.00;;;;;;;32.92;23.09;98646.56;4832173;29;20050;-61
2021/07/20 13:23:04;;;;;;;3.70;1.98;;;;;;;32.93;23.72;98646.31;4837976;29;20052;-59
2021/07/20 13:25:30;;;;;;;5.40;1.60;;;;;;;32.64;23.76;98637.03;4838836;29;20041;-60